Airfield :
LOGIN :

Register | Disclaimer

   EN    FR    IT 

 










Legend :    VFR   Marginal VFR   IFR   Intensive IFR   Very Intensive IFR
Visi :
Ceiling :
>= 8 km
>= 3000ft
5 to 8 km
1000 to 3000 ft
1500m to 5 km
500 to 1000 ft
800 to 1500m
200 to 500 ft
< 800m
< 200 ft
Symbols :   Thunderstorms  Fog  Heavy snow  Heavy precipitations  Wind > 20 kt
SIGMETs :     Misc.  Thunderstorms  Icing  Turbulence  Mountain Waves  Volcanic Ashes







- Airport Elevation : 16 ft
- IATA code : LPX


EVLA - Liepaja

CURRENT METAR :
  • 201150Z AUTO 31006KT 270V350 9999 NCD 18/02 Q1028

EXPIRED METARs :
  • 201120Z AUTO 30005KT 250V010 9999 NCD 18/02 Q1028
  • 201050Z AUTO 31008KT 280V360 9999 NCD 18/01 Q1028
  • 201020Z AUTO 31007KT 270V340 9999 NCD 18/01 Q1028
  • 200950Z AUTO 33007KT 290V020 9999 NCD 17/00 Q1028
  • 200920Z AUTO 35008KT 310V020 9999 NCD 17/01 Q1028

TAF TAF EVLA
Valid from the 20 at 12:00 until the 21 at 12:00 UTC


201102Z 2012/2112 34007KT CAVOK
BECMG 2019/2021 VRB02KT
TEMPO 2023/2104 1500 BR
BECMG 2108/2110 36010KT
No reported NOTAMs for that airfield.



MET'MAP, your aeronautical weather chart ! - Copyright ORBIFLY December 2007 - Disclaimer

ORBIFLY MET'MAP TEAM :

Programming & Development : Alexandra Zaïnal
Concept & Development : Baudouin d'Aumeries
Co-Development & Prog : Marc-Olivier Méhu
Technical & hardware support : Manuel Goepfert

Contact : metmap@orbifly.com




SOURCES & CREDITS :

   NOAA